createdAt,value
2022-11-23T00:01:48.031Z,95928.88
2022-11-23T00:06:52.246Z,95923.22
2022-11-23T00:11:57.182Z,95929.44
2022-11-23T00:17:00.729Z,95924.31
2022-11-23T00:22:04.358Z,95909.91
2022-11-23T00:27:09.383Z,95931.09
2022-11-23T00:32:14.886Z,95934.09
2022-11-23T00:37:18.439Z,95930.53
2022-11-23T00:42:23.330Z,95926.78
2022-11-23T00:47:26.882Z,95945.47
2022-11-23T00:52:30.520Z,95937.47
2022-11-23T00:57:35.879Z,95941.22
2022-11-23T01:02:39.509Z,95949.38
2022-11-23T01:07:43.194Z,95946.88
2022-11-23T01:12:48.140Z,95938.44
2022-11-23T01:17:51.700Z,95949.59
2022-11-23T01:22:55.281Z,95965.22
2022-11-23T01:28:00.176Z,95957.19
2022-11-23T01:33:04.461Z,95958.09
2022-11-23T01:38:07.993Z,95955.25
2022-11-23T01:43:17.954Z,95960.19
2022-11-23T01:48:26.292Z,95970.28
2022-11-23T01:53:32.769Z,95977.44
2022-11-23T01:58:41.027Z,95974.31
2022-11-23T02:03:45.668Z,95982.03
2022-11-23T02:08:49.610Z,95989.31
2022-11-23T02:13:57.094Z,95999.25
2022-11-23T02:19:01.317Z,95992.69
2022-11-23T02:24:10.163Z,95990.91
2022-11-23T02:29:20.147Z,95990.81
2022-11-23T02:34:23.701Z,95987.44
2022-11-23T02:39:32.931Z,95985.59
2022-11-23T02:44:47.644Z,95984.06
2022-11-23T02:49:51.116Z,95978.13
2022-11-23T02:54:55.102Z,95987.47
2022-11-23T03:00:00.066Z,95978.88
2022-11-23T03:05:03.896Z,95988.13
2022-11-23T03:10:08.748Z,95981.31
2022-11-23T03:15:13.926Z,95987.81
2022-11-23T03:20:18.406Z,95990.00
2022-11-23T03:25:24.430Z,95989.63
2022-11-23T03:30:32.921Z,96003.28
2022-11-23T03:35:36.751Z,96013.69
2022-11-23T03:40:54.385Z,96006.81
2022-11-23T03:46:19.234Z,96015.16
2022-11-23T03:51:23.119Z,96010.13
2022-11-23T03:56:26.872Z,96016.91
2022-11-23T04:01:33.197Z,96011.63
2022-11-23T04:06:41.313Z,96007.31
2022-11-23T04:11:52.818Z,96004.25
2022-11-23T04:16:57.961Z,96001.56
2022-11-23T04:22:01.898Z,96000.84
2022-11-23T04:27:11.074Z,95998.53
2022-11-23T04:32:16.596Z,95997.53
2022-11-23T04:37:20.645Z,96010.09
2022-11-23T04:42:24.364Z,96006.56
2022-11-23T04:47:35.852Z,96007.63
2022-11-23T04:52:43.719Z,96001.72
2022-11-23T04:57:52.843Z,96001.66
2022-11-23T05:03:00.322Z,96006.91
2022-11-23T05:08:08.175Z,96006.50
2022-11-23T05:13:31.677Z,95997.91
2022-11-23T05:18:36.943Z,96012.03
2022-11-23T05:23:41.001Z,95988.47
2022-11-23T05:28:45.392Z,95991.50
2022-11-23T05:33:53.268Z,95996.84
2022-11-23T05:39:09.699Z,95986.50
2022-11-23T05:44:15.609Z,95997.38
2022-11-23T05:49:22.029Z,95993.34
2022-11-23T05:54:26.694Z,95996.56
2022-11-23T05:59:42.702Z,96009.25
2022-11-23T06:04:52.944Z,96004.53
2022-11-23T06:10:03.663Z,96010.06
2022-11-23T06:15:09.433Z,96006.13
2022-11-23T06:20:14.754Z,96017.56
2022-11-23T06:25:22.861Z,96020.41
2022-11-23T06:30:44.682Z,96021.09
2022-11-23T06:35:56.305Z,96014.94
2022-11-23T06:41:03.234Z,96006.72
2022-11-23T06:46:08.531Z,96009.97
2022-11-23T06:51:18.184Z,96004.00
2022-11-23T06:56:23.804Z,96009.88
2022-11-23T07:01:27.721Z,96023.94
2022-11-23T07:06:40.675Z,96028.00
2022-11-23T07:11:51.366Z,96041.81
2022-11-23T07:16:55.465Z,96042.66
2022-11-23T07:22:01.080Z,96036.84
2022-11-23T07:27:06.167Z,96047.78
2022-11-23T07:32:10.218Z,96058.59
2022-11-23T07:37:15.192Z,96070.91
2022-11-23T07:42:43.227Z,96069.91
2022-11-23T07:47:44.537Z,96081.84
2022-11-23T07:52:49.441Z,96088.53
2022-11-23T07:57:54.154Z,96088.16
2022-11-23T08:08:25.478Z,96091.44
2022-11-23T08:13:29.186Z,96084.69
2022-11-23T08:18:32.936Z,96090.38
2022-11-23T08:23:37.965Z,96089.44
2022-11-23T08:28:41.555Z,96093.16
2022-11-23T08:33:45.139Z,96098.44
2022-11-23T08:38:51.428Z,96101.22
2022-11-23T08:43:55.198Z,96114.06
2022-11-23T08:48:58.733Z,96103.81
2022-11-23T08:54:03.638Z,96113.25
2022-11-23T08:59:07.330Z,96101.25
2022-11-23T09:04:11.733Z,96108.13
2022-11-23T09:09:18.080Z,96118.34
2022-11-23T09:14:21.914Z,96110.38
2022-11-23T09:19:25.769Z,96108.91
2022-11-23T09:24:31.185Z,96120.09
2022-11-23T09:29:37.666Z,96125.81
2022-11-23T09:34:41.290Z,96130.13
2022-11-23T09:39:46.241Z,96132.59
2022-11-23T09:45:04.111Z,96124.63
2022-11-23T09:50:16.182Z,96131.84
2022-11-23T09:55:30.147Z,96131.72
2022-11-23T10:00:39.792Z,96131.16
2022-11-23T10:05:48.952Z,96133.38
2022-11-23T10:11:02.473Z,96132.97
2022-11-23T10:16:30.359Z,96130.19
2022-11-23T10:21:42.092Z,96125.75
2022-11-23T10:26:49.267Z,96130.75
2022-11-23T10:31:57.303Z,96120.75
2022-11-23T10:37:01.186Z,96129.47
2022-11-23T10:42:22.088Z,96123.81
2022-11-23T10:47:38.625Z,96116.13
2022-11-23T10:52:51.984Z,96114.34
2022-11-23T10:57:57.278Z,96109.63
2022-11-23T11:03:03.396Z,96103.84
2022-11-23T11:08:21.277Z,96104.91
2022-11-23T11:13:29.877Z,96103.13
2022-11-23T11:18:36.096Z,96098.56
2022-11-23T11:23:42.328Z,96097.47
2022-11-23T11:28:50.223Z,96100.84
2022-11-23T11:33:59.922Z,96093.56
2022-11-23T11:39:20.717Z,96092.03
2022-11-23T11:44:27.871Z,96088.97
2022-11-23T11:49:34.514Z,96085.34
2022-11-23T11:54:46.055Z,96078.13
2022-11-23T11:59:56.366Z,96092.09
2022-11-23T12:05:11.563Z,96077.78
2022-11-23T12:10:19.728Z,96079.69
2022-11-23T12:15:48.953Z,96074.47
2022-11-23T12:21:05.229Z,96071.09
2022-11-23T12:26:23.643Z,96068.09
2022-11-23T12:31:40.963Z,96071.28
2022-11-23T12:37:10.396Z,96065.53
2022-11-23T12:42:22.366Z,96064.22
2022-11-23T12:47:40.059Z,96065.28
2022-11-23T12:52:58.018Z,96065.34
2022-11-23T12:58:12.541Z,96060.88
2022-11-23T13:03:59.455Z,96060.69
2022-11-23T13:09:47.876Z,96052.78
2022-11-23T13:15:08.111Z,96037.06
2022-11-23T13:20:28.297Z,96043.88
2022-11-23T13:25:32.419Z,96034.44
2022-11-23T13:31:07.208Z,96033.13
2022-11-23T13:36:09.447Z,96033.72
2022-11-23T13:41:57.682Z,96037.84
2022-11-23T13:47:04.805Z,96031.59
2022-11-23T13:52:43.866Z,96021.34
2022-11-23T13:58:26.324Z,96014.94
2022-11-23T14:03:51.936Z,96023.53
2022-11-23T14:09:06.218Z,96012.03
2022-11-23T14:14:22.196Z,96014.16
2022-11-23T14:19:37.125Z,96006.88
2022-11-23T14:24:58.906Z,96015.59
2022-11-23T14:30:31.655Z,96005.34
2022-11-23T14:35:47.879Z,96013.25
2022-11-23T14:41:04.593Z,96009.78
2022-11-23T14:46:16.778Z,96012.13
2022-11-23T14:51:23.609Z,96007.69
2022-11-23T14:56:35.422Z,95998.66
2022-11-23T15:01:39.327Z,95998.75
2022-11-23T15:06:48.685Z,95998.34
2022-11-23T15:12:07.115Z,95998.69
2022-11-23T15:17:18.564Z,96000.88
2022-11-23T15:22:22.406Z,95992.78
2022-11-23T15:27:29.529Z,95992.84
2022-11-23T15:32:35.188Z,95997.56
2022-11-23T15:37:45.217Z,96005.66
2022-11-23T15:42:52.163Z,95999.38
2022-11-23T15:47:55.794Z,95995.63
2022-11-23T15:53:02.709Z,95993.75
2022-11-23T15:58:10.713Z,95985.72
2022-11-23T16:03:33.115Z,95994.63
2022-11-23T16:08:40.862Z,95990.66
2022-11-23T16:13:49.778Z,95990.16
2022-11-23T16:18:57.170Z,95994.00
2022-11-23T16:24:01.120Z,96000.19
2022-11-23T16:29:06.157Z,95994.50
2022-11-23T16:34:11.567Z,96003.78
2022-11-23T16:39:15.479Z,96003.78
2022-11-23T16:44:21.228Z,96015.25
2022-11-23T16:49:25.241Z,96007.63
2022-11-23T16:54:28.850Z,96012.34
2022-11-23T16:59:37.271Z,96011.00
2022-11-23T17:04:41.491Z,96008.88
2022-11-23T17:09:48.275Z,96003.91
2022-11-23T17:14:53.269Z,96012.88
2022-11-23T17:20:02.514Z,96025.75
2022-11-23T17:25:14.304Z,96028.13
2022-11-23T17:30:21.963Z,96035.16
2022-11-23T17:35:26.782Z,96034.72
2022-11-23T17:40:30.385Z,96055.59
2022-11-23T17:45:35.629Z,96058.25
2022-11-23T17:50:41.927Z,96062.78
2022-11-23T17:55:45.931Z,96062.19
2022-11-23T18:00:50.924Z,96065.38
2022-11-23T18:05:55.855Z,96069.03
2022-11-23T18:11:00.519Z,96082.59
2022-11-23T18:16:07.098Z,96094.78
2022-11-23T18:21:14.593Z,96092.06
2022-11-23T18:26:23.309Z,96111.09
2022-11-23T18:31:29.287Z,96112.56
2022-11-23T18:36:36.536Z,96117.69
2022-11-23T18:41:40.786Z,96108.16
2022-11-23T18:46:46.173Z,96121.16
2022-11-23T18:51:52.545Z,96121.56
2022-11-23T18:56:56.118Z,96121.47
2022-11-23T19:02:01.185Z,96121.53
2022-11-23T19:07:04.976Z,96126.31
2022-11-23T19:12:10.724Z,96121.00
2022-11-23T19:17:17.423Z,96118.34
2022-11-23T19:22:22.358Z,96126.50
2022-11-23T19:27:29.541Z,96132.91
2022-11-23T19:32:36.962Z,96138.63
2022-11-23T19:37:48.123Z,96142.47
2022-11-23T19:43:22.504Z,96141.50
2022-11-23T19:48:34.093Z,96148.13
2022-11-23T19:53:46.946Z,96160.09
2022-11-23T19:58:56.677Z,96156.66
2022-11-23T20:04:16.786Z,96158.72
2022-11-23T20:09:22.881Z,96168.38
2022-11-23T20:14:31.209Z,96167.41
2022-11-23T20:19:42.396Z,96173.47
2022-11-23T20:24:49.635Z,96173.91
2022-11-23T20:29:57.447Z,96175.28
2022-11-23T20:35:03.364Z,96184.19
2022-11-23T20:40:09.497Z,96193.41
2022-11-23T20:45:14.925Z,96185.34
2022-11-23T20:50:24.946Z,96194.97
2022-11-23T20:55:29.225Z,96207.63
2022-11-23T21:00:32.861Z,96205.91
2022-11-23T21:05:38.283Z,96216.97
2022-11-23T21:10:55.743Z,96212.72
2022-11-23T21:16:06.943Z,96225.28
2022-11-23T21:21:12.138Z,96222.94
2022-11-23T21:26:15.701Z,96225.00
2022-11-23T21:31:19.402Z,96223.28
2022-11-23T21:36:24.387Z,96228.38
2022-11-23T21:41:27.952Z,96246.97
2022-11-23T21:46:31.902Z,96247.66
2022-11-23T21:51:37.845Z,96265.84
2022-11-23T21:56:41.572Z,96270.75
2022-11-23T22:01:45.327Z,96263.75
2022-11-23T22:06:50.484Z,96282.31
2022-11-23T22:11:54.064Z,96285.19
2022-11-23T22:16:57.885Z,96289.91
2022-11-23T22:22:03.975Z,96304.41
2022-11-23T22:27:07.685Z,96298.22
2022-11-23T22:32:11.666Z,96312.13
2022-11-23T22:37:17.008Z,96325.91
2022-11-23T22:42:20.725Z,96331.25
2022-11-23T22:47:24.326Z,96340.38
2022-11-23T22:52:29.438Z,96339.03
2022-11-23T22:57:33.154Z,96338.91
2022-11-23T23:02:37.337Z,96341.53
2022-11-23T23:07:43.109Z,96340.25
2022-11-23T23:12:46.960Z,96342.63
2022-11-23T23:17:50.420Z,96328.56
2022-11-23T23:22:55.331Z,96333.94
2022-11-23T23:27:58.836Z,96347.28
2022-11-23T23:33:03.091Z,96353.47
2022-11-23T23:38:07.994Z,96350.25
2022-11-23T23:43:11.633Z,96353.25
2022-11-23T23:48:15.713Z,96361.69
2022-11-23T23:53:22.158Z,96372.94
2022-11-23T23:58:26.673Z,96375.69
